sensor_id;sensor_type;location;lat;lon;timestamp;temperature;humidity
19256;DHT22;9762;52.490;13.410;2023-05-07T00:01:56;13.10;99.60
19256;DHT22;9762;52.490;13.410;2023-05-07T00:04:22;13.00;99.40
19256;DHT22;9762;52.490;13.410;2023-05-07T00:06:48;13.00;99.60
19256;DHT22;9762;52.490;13.410;2023-05-07T00:09:14;13.00;99.40
19256;DHT22;9762;52.490;13.410;2023-05-07T00:11:39;13.00;99.40
19256;DHT22;9762;52.490;13.410;2023-05-07T00:14:05;13.00;99.50
19256;DHT22;9762;52.490;13.410;2023-05-07T00:16:31;13.10;99.60
19256;DHT22;9762;52.490;13.410;2023-05-07T00:18:57;13.10;99.40
19256;DHT22;9762;52.490;13.410;2023-05-07T00:21:22;13.10;99.40
19256;DHT22;9762;52.490;13.410;2023-05-07T00:23:48;13.20;99.10
19256;DHT22;9762;52.490;13.410;2023-05-07T00:26:14;13.10;99.00
19256;DHT22;9762;52.490;13.410;2023-05-07T00:28:39;13.10;99.00
19256;DHT22;9762;52.490;13.410;2023-05-07T00:31:05;13.10;99.10
19256;DHT22;9762;52.490;13.410;2023-05-07T00:33:30;13.10;99.00
19256;DHT22;9762;52.490;13.410;2023-05-07T00:35:56;13.20;99.00
19256;DHT22;9762;52.490;13.410;2023-05-07T00:38:22;13.20;98.90
19256;DHT22;9762;52.490;13.410;2023-05-07T00:40:47;13.20;98.80
19256;DHT22;9762;52.490;13.410;2023-05-07T00:43:13;13.30;98.70
19256;DHT22;9762;52.490;13.410;2023-05-07T00:45:38;13.30;98.60
19256;DHT22;9762;52.490;13.410;2023-05-07T00:48:04;13.30;98.30
19256;DHT22;9762;52.490;13.410;2023-05-07T00:50:31;13.30;98.30
19256;DHT22;9762;52.490;13.410;2023-05-07T00:52:57;13.30;98.30
19256;DHT22;9762;52.490;13.410;2023-05-07T00:55:23;13.20;98.30
19256;DHT22;9762;52.490;13.410;2023-05-07T00:57:50;13.20;98.40
19256;DHT22;9762;52.490;13.410;2023-05-07T01:00:16;13.20;98.50
19256;DHT22;9762;52.490;13.410;2023-05-07T01:02:42;13.10;98.50
19256;DHT22;9762;52.490;13.410;2023-05-07T01:05:11;13.10;98.60
19256;DHT22;9762;52.490;13.410;2023-05-07T01:07:38;13.10;98.70
19256;DHT22;9762;52.490;13.410;2023-05-07T01:10:06;13.10;98.70
19256;DHT22;9762;52.490;13.410;2023-05-07T01:12:33;13.10;98.70
19256;DHT22;9762;52.490;13.410;2023-05-07T01:14:59;13.10;98.70
19256;DHT22;9762;52.490;13.410;2023-05-07T01:17:25;13.10;98.60
19256;DHT22;9762;52.490;13.410;2023-05-07T01:19:51;13.00;98.60
19256;DHT22;9762;52.490;13.410;2023-05-07T01:22:30;13.00;98.70
19256;DHT22;9762;52.490;13.410;2023-05-07T01:24:57;13.00;98.70
19256;DHT22;9762;52.490;13.410;2023-05-07T01:27:25;13.00;98.70
19256;DHT22;9762;52.490;13.410;2023-05-07T01:29:51;13.10;98.60
19256;DHT22;9762;52.490;13.410;2023-05-07T01:32:19;13.10;98.60
19256;DHT22;9762;52.490;13.410;2023-05-07T01:34:48;13.10;98.50
19256;DHT22;9762;52.490;13.410;2023-05-07T01:37:14;13.10;98.60
19256;DHT22;9762;52.490;13.410;2023-05-07T01:39:41;13.10;98.50
19256;DHT22;9762;52.490;13.410;2023-05-07T01:42:07;13.00;98.50
19256;DHT22;9762;52.490;13.410;2023-05-07T01:44:33;13.00;98.50
19256;DHT22;9762;52.490;13.410;2023-05-07T01:46:59;13.00;98.50
19256;DHT22;9762;52.490;13.410;2023-05-07T01:49:25;13.10;98.60
19256;DHT22;9762;52.490;13.410;2023-05-07T01:51:51;13.10;98.40
19256;DHT22;9762;52.490;13.410;2023-05-07T01:54:17;13.10;98.40
19256;DHT22;9762;52.490;13.410;2023-05-07T01:56:42;13.10;98.30
19256;DHT22;9762;52.490;13.410;2023-05-07T01:59:08;13.10;98.20
19256;DHT22;9762;52.490;13.410;2023-05-07T02:01:34;13.00;98.10
19256;DHT22;9762;52.490;13.410;2023-05-07T02:03:59;13.00;98.20
19256;DHT22;9762;52.490;13.410;2023-05-07T02:06:25;13.00;98.20
19256;DHT22;9762;52.490;13.410;2023-05-07T02:08:51;12.90;98.30
19256;DHT22;9762;52.490;13.410;2023-05-07T02:11:16;12.90;98.40
19256;DHT22;9762;52.490;13.410;2023-05-07T02:13:42;12.80;98.40
19256;DHT22;9762;52.490;13.410;2023-05-07T02:16:08;12.80;98.40
19256;DHT22;9762;52.490;13.410;2023-05-07T02:18:33;12.90;98.50
19256;DHT22;9762;52.490;13.410;2023-05-07T02:20:59;12.90;98.30
19256;DHT22;9762;52.490;13.410;2023-05-07T02:23:24;12.90;98.30
19256;DHT22;9762;52.490;13.410;2023-05-07T02:25:51;12.90;98.30
19256;DHT22;9762;52.490;13.410;2023-05-07T02:28:16;13.00;98.40
19256;DHT22;9762;52.490;13.410;2023-05-07T02:30:42;13.00;98.30
19256;DHT22;9762;52.490;13.410;2023-05-07T02:33:07;13.10;98.30
19256;DHT22;9762;52.490;13.410;2023-05-07T02:35:33;13.10;98.20
19256;DHT22;9762;52.490;13.410;2023-05-07T02:37:59;13.20;98.00
19256;DHT22;9762;52.490;13.410;2023-05-07T02:40:25;13.20;98.00
19256;DHT22;9762;52.490;13.410;2023-05-07T02:42:50;13.20;97.90
19256;DHT22;9762;52.490;13.410;2023-05-07T02:45:16;13.20;98.00
19256;DHT22;9762;52.490;13.410;2023-05-07T02:47:42;13.20;97.80
19256;DHT22;9762;52.490;13.410;2023-05-07T02:50:07;13.20;97.90
19256;DHT22;9762;52.490;13.410;2023-05-07T02:52:33;13.20;97.90
19256;DHT22;9762;52.490;13.410;2023-05-07T02:54:58;13.20;97.80
19256;DHT22;9762;52.490;13.410;2023-05-07T02:57:24;13.20;97.70
19256;DHT22;9762;52.490;13.410;2023-05-07T02:59:50;13.20;97.70
19256;DHT22;9762;52.490;13.410;2023-05-07T03:02:16;13.30;97.60
19256;DHT22;9762;52.490;13.410;2023-05-07T03:04:41;13.30;97.40
19256;DHT22;9762;52.490;13.410;2023-05-07T03:07:07;13.20;97.40
19256;DHT22;9762;52.490;13.410;2023-05-07T03:09:33;13.10;97.40
19256;DHT22;9762;52.490;13.410;2023-05-07T03:11:58;13.10;97.60
19256;DHT22;9762;52.490;13.410;2023-05-07T03:14:24;13.00;97.50
19256;DHT22;9762;52.490;13.410;2023-05-07T03:16:50;13.00;97.70
19256;DHT22;9762;52.490;13.410;2023-05-07T03:19:15;13.00;97.80
19256;DHT22;9762;52.490;13.410;2023-05-07T03:21:41;13.00;97.80
19256;DHT22;9762;52.490;13.410;2023-05-07T03:24:07;12.90;97.70
19256;DHT22;9762;52.490;13.410;2023-05-07T03:26:33;12.90;97.80
19256;DHT22;9762;52.490;13.410;2023-05-07T03:28:58;12.90;97.70
19256;DHT22;9762;52.490;13.410;2023-05-07T03:31:24;12.90;97.70
19256;DHT22;9762;52.490;13.410;2023-05-07T03:33:54;12.80;97.80
19256;DHT22;9762;52.490;13.410;2023-05-07T03:36:20;12.90;97.90
19256;DHT22;9762;52.490;13.410;2023-05-07T03:38:46;12.90;97.90
19256;DHT22;9762;52.490;13.410;2023-05-07T03:41:12;12.90;97.90
19256;DHT22;9762;52.490;13.410;2023-05-07T03:43:38;12.90;97.80
19256;DHT22;9762;52.490;13.410;2023-05-07T03:46:03;12.90;97.90
19256;DHT22;9762;52.490;13.410;2023-05-07T03:48:29;12.90;97.90
19256;DHT22;9762;52.490;13.410;2023-05-07T03:50:56;12.90;97.80
19256;DHT22;9762;52.490;13.410;2023-05-07T03:53:22;12.80;98.00
19256;DHT22;9762;52.490;13.410;2023-05-07T03:55:48;12.80;98.10
19256;DHT22;9762;52.490;13.410;2023-05-07T03:58:13;12.70;98.10
19256;DHT22;9762;52.490;13.410;2023-05-07T04:00:39;12.70;98.30
19256;DHT22;9762;52.490;13.410;2023-05-07T04:03:06;12.80;98.30
19256;DHT22;9762;52.490;13.410;2023-05-07T04:05:31;12.70;98.10
19256;DHT22;9762;52.490;13.410;2023-05-07T04:08:00;12.80;98.50
19256;DHT22;9762;52.490;13.410;2023-05-07T04:10:26;12.80;98.20
19256;DHT22;9762;52.490;13.410;2023-05-07T04:12:53;12.80;98.10
19256;DHT22;9762;52.490;13.410;2023-05-07T04:15:19;12.80;98.00
19256;DHT22;9762;52.490;13.410;2023-05-07T04:17:45;12.80;98.00
19256;DHT22;9762;52.490;13.410;2023-05-07T04:20:13;12.70;98.20
19256;DHT22;9762;52.490;13.410;2023-05-07T04:22:39;12.70;97.90
19256;DHT22;9762;52.490;13.410;2023-05-07T04:25:06;12.70;98.00
19256;DHT22;9762;52.490;13.410;2023-05-07T04:27:31;12.60;98.20
19256;DHT22;9762;52.490;13.410;2023-05-07T04:29:57;12.60;98.20
19256;DHT22;9762;52.490;13.410;2023-05-07T04:32:23;12.70;98.10
19256;DHT22;9762;52.490;13.410;2023-05-07T04:34:50;12.70;98.10
19256;DHT22;9762;52.490;13.410;2023-05-07T04:37:16;12.70;98.10
19256;DHT22;9762;52.490;13.410;2023-05-07T04:39:41;12.70;98.00
19256;DHT22;9762;52.490;13.410;2023-05-07T04:42:07;12.70;98.00
19256;DHT22;9762;52.490;13.410;2023-05-07T04:44:34;12.70;98.00
19256;DHT22;9762;52.490;13.410;2023-05-07T04:47:00;12.80;97.80
19256;DHT22;9762;52.490;13.410;2023-05-07T04:49:26;12.80;97.70
19256;DHT22;9762;52.490;13.410;2023-05-07T04:51:52;12.80;97.60
19256;DHT22;9762;52.490;13.410;2023-05-07T04:54:17;12.90;97.60
19256;DHT22;9762;52.490;13.410;2023-05-07T04:56:43;13.00;97.40
19256;DHT22;9762;52.490;13.410;2023-05-07T04:59:09;13.00;97.20
19256;DHT22;9762;52.490;13.410;2023-05-07T05:01:34;12.90;97.10
19256;DHT22;9762;52.490;13.410;2023-05-07T05:04:00;12.90;97.20
19256;DHT22;9762;52.490;13.410;2023-05-07T05:06:26;12.90;97.20
19256;DHT22;9762;52.490;13.410;2023-05-07T05:08:51;12.90;97.20
19256;DHT22;9762;52.490;13.410;2023-05-07T05:11:17;12.80;97.30
19256;DHT22;9762;52.490;13.410;2023-05-07T05:13:43;12.90;97.30
19256;DHT22;9762;52.490;13.410;2023-05-07T05:16:09;13.00;97.20
19256;DHT22;9762;52.490;13.410;2023-05-07T05:18:52;13.00;97.20
19256;DHT22;9762;52.490;13.410;2023-05-07T05:21:22;13.10;97.00
19256;DHT22;9762;52.490;13.410;2023-05-07T05:23:54;13.20;96.70
19256;DHT22;9762;52.490;13.410;2023-05-07T05:26:23;13.20;96.50
19256;DHT22;9762;52.490;13.410;2023-05-07T05:28:49;13.20;96.30
19256;DHT22;9762;52.490;13.410;2023-05-07T05:31:24;13.20;96.20
19256;DHT22;9762;52.490;13.410;2023-05-07T05:33:50;13.10;96.20
19256;DHT22;9762;52.490;13.410;2023-05-07T05:36:15;13.10;96.30
19256;DHT22;9762;52.490;13.410;2023-05-07T05:38:41;13.10;96.20
19256;DHT22;9762;52.490;13.410;2023-05-07T05:41:07;13.10;96.20
19256;DHT22;9762;52.490;13.410;2023-05-07T05:43:33;13.10;96.20
19256;DHT22;9762;52.490;13.410;2023-05-07T05:45:58;13.00;96.20
19256;DHT22;9762;52.490;13.410;2023-05-07T05:48:24;13.00;96.30
19256;DHT22;9762;52.490;13.410;2023-05-07T05:50:50;13.10;96.20
19256;DHT22;9762;52.490;13.410;2023-05-07T05:53:15;13.10;96.20
19256;DHT22;9762;52.490;13.410;2023-05-07T05:55:41;13.10;96.40
19256;DHT22;9762;52.490;13.410;2023-05-07T05:58:07;13.20;96.20
19256;DHT22;9762;52.490;13.410;2023-05-07T06:00:34;13.30;96.10
19256;DHT22;9762;52.490;13.410;2023-05-07T06:02:59;13.40;95.90
19256;DHT22;9762;52.490;13.410;2023-05-07T06:05:25;13.40;95.70
19256;DHT22;9762;52.490;13.410;2023-05-07T06:07:51;13.50;95.70
19256;DHT22;9762;52.490;13.410;2023-05-07T06:10:16;13.60;95.80
19256;DHT22;9762;52.490;13.410;2023-05-07T06:12:42;13.70;95.40
19256;DHT22;9762;52.490;13.410;2023-05-07T06:15:08;13.70;95.00
19256;DHT22;9762;52.490;13.410;2023-05-07T06:17:34;13.70;94.90
19256;DHT22;9762;52.490;13.410;2023-05-07T06:19:59;13.80;95.00
19256;DHT22;9762;52.490;13.410;2023-05-07T06:22:25;13.80;95.00
19256;DHT22;9762;52.490;13.410;2023-05-07T06:24:50;13.80;95.00
19256;DHT22;9762;52.490;13.410;2023-05-07T06:27:16;13.90;95.00
19256;DHT22;9762;52.490;13.410;2023-05-07T06:29:42;13.90;94.30
19256;DHT22;9762;52.490;13.410;2023-05-07T06:32:12;13.90;94.40
19256;DHT22;9762;52.490;13.410;2023-05-07T06:34:38;13.90;94.50
19256;DHT22;9762;52.490;13.410;2023-05-07T06:37:03;13.90;94.60
19256;DHT22;9762;52.490;13.410;2023-05-07T06:39:29;14.00;94.50
19256;DHT22;9762;52.490;13.410;2023-05-07T06:41:55;14.00;94.50
19256;DHT22;9762;52.490;13.410;2023-05-07T06:44:20;13.90;94.60
19256;DHT22;9762;52.490;13.410;2023-05-07T06:46:46;13.90;94.60
19256;DHT22;9762;52.490;13.410;2023-05-07T06:49:15;13.90;94.90
19256;DHT22;9762;52.490;13.410;2023-05-07T06:51:40;14.00;94.90
19256;DHT22;9762;52.490;13.410;2023-05-07T06:54:06;14.10;94.60
19256;DHT22;9762;52.490;13.410;2023-05-07T06:56:33;14.20;94.30
19256;DHT22;9762;52.490;13.410;2023-05-07T06:59:00;14.30;94.10
19256;DHT22;9762;52.490;13.410;2023-05-07T07:01:25;14.40;94.10
19256;DHT22;9762;52.490;13.410;2023-05-07T07:03:51;14.40;93.70
19256;DHT22;9762;52.490;13.410;2023-05-07T07:06:17;14.40;93.60
19256;DHT22;9762;52.490;13.410;2023-05-07T07:08:43;14.50;93.40
19256;DHT22;9762;52.490;13.410;2023-05-07T07:11:09;14.50;93.80
19256;DHT22;9762;52.490;13.410;2023-05-07T07:13:35;14.70;93.90
19256;DHT22;9762;52.490;13.410;2023-05-07T07:16:01;14.80;93.20
19256;DHT22;9762;52.490;13.410;2023-05-07T07:18:26;14.80;93.00
19256;DHT22;9762;52.490;13.410;2023-05-07T07:20:52;14.90;93.20
19256;DHT22;9762;52.490;13.410;2023-05-07T07:23:18;15.00;92.90
19256;DHT22;9762;52.490;13.410;2023-05-07T07:25:44;15.20;92.40
19256;DHT22;9762;52.490;13.410;2023-05-07T07:28:10;15.30;92.60
19256;DHT22;9762;52.490;13.410;2023-05-07T07:30:36;15.40;92.20
19256;DHT22;9762;52.490;13.410;2023-05-07T07:33:02;15.50;91.70
19256;DHT22;9762;52.490;13.410;2023-05-07T07:35:32;15.50;91.20
19256;DHT22;9762;52.490;13.410;2023-05-07T07:37:58;15.60;91.40
19256;DHT22;9762;52.490;13.410;2023-05-07T07:40:24;15.70;91.20
19256;DHT22;9762;52.490;13.410;2023-05-07T07:42:50;15.80;91.20
19256;DHT22;9762;52.490;13.410;2023-05-07T07:45:16;15.90;90.90
19256;DHT22;9762;52.490;13.410;2023-05-07T07:47:42;15.90;90.40
19256;DHT22;9762;52.490;13.410;2023-05-07T07:50:08;15.90;90.20
19256;DHT22;9762;52.490;13.410;2023-05-07T07:52:34;15.80;90.30
19256;DHT22;9762;52.490;13.410;2023-05-07T07:55:00;15.80;90.10
19256;DHT22;9762;52.490;13.410;2023-05-07T07:57:26;15.70;90.00
19256;DHT22;9762;52.490;13.410;2023-05-07T07:59:51;15.50;90.30
19256;DHT22;9762;52.490;13.410;2023-05-07T08:02:17;15.50;90.50
19256;DHT22;9762;52.490;13.410;2023-05-07T08:04:43;15.50;90.80
19256;DHT22;9762;52.490;13.410;2023-05-07T08:07:12;15.60;90.40
19256;DHT22;9762;52.490;13.410;2023-05-07T08:09:40;15.60;90.50
19256;DHT22;9762;52.490;13.410;2023-05-07T08:12:06;15.70;90.10
19256;DHT22;9762;52.490;13.410;2023-05-07T08:14:33;15.70;90.10
19256;DHT22;9762;52.490;13.410;2023-05-07T08:16:58;15.80;90.50
19256;DHT22;9762;52.490;13.410;2023-05-07T08:19:24;15.80;90.20
19256;DHT22;9762;52.490;13.410;2023-05-07T08:21:50;15.90;90.10
19256;DHT22;9762;52.490;13.410;2023-05-07T08:24:16;16.10;90.10
19256;DHT22;9762;52.490;13.410;2023-05-07T08:26:42;16.10;89.30
19256;DHT22;9762;52.490;13.410;2023-05-07T08:29:08;16.20;89.40
19256;DHT22;9762;52.490;13.410;2023-05-07T08:31:34;16.30;88.40
19256;DHT22;9762;52.490;13.410;2023-05-07T08:33:59;16.30;87.30
19256;DHT22;9762;52.490;13.410;2023-05-07T08:36:25;16.30;87.30
19256;DHT22;9762;52.490;13.410;2023-05-07T08:38:51;16.30;87.20
19256;DHT22;9762;52.490;13.410;2023-05-07T08:41:17;16.50;87.50
19256;DHT22;9762;52.490;13.410;2023-05-07T08:43:47;16.50;86.30
19256;DHT22;9762;52.490;13.410;2023-05-07T08:46:17;16.50;85.60
19256;DHT22;9762;52.490;13.410;2023-05-07T08:48:44;16.60;85.60
19256;DHT22;9762;52.490;13.410;2023-05-07T08:51:13;16.60;86.40
19256;DHT22;9762;52.490;13.410;2023-05-07T08:53:41;16.70;86.50
19256;DHT22;9762;52.490;13.410;2023-05-07T08:56:08;16.70;85.00
19256;DHT22;9762;52.490;13.410;2023-05-07T08:58:34;16.80;84.50
19256;DHT22;9762;52.490;13.410;2023-05-07T09:01:05;16.80;84.50
19256;DHT22;9762;52.490;13.410;2023-05-07T09:03:32;17.00;84.20
19256;DHT22;9762;52.490;13.410;2023-05-07T09:05:58;17.10;84.00
19256;DHT22;9762;52.490;13.410;2023-05-07T09:08:27;17.30;84.40
19256;DHT22;9762;52.490;13.410;2023-05-07T09:10:53;17.50;83.50
19256;DHT22;9762;52.490;13.410;2023-05-07T09:13:19;17.60;80.90
19256;DHT22;9762;52.490;13.410;2023-05-07T09:15:45;17.60;80.50
19256;DHT22;9762;52.490;13.410;2023-05-07T09:18:10;17.60;80.00
19256;DHT22;9762;52.490;13.410;2023-05-07T09:20:37;17.60;80.60
19256;DHT22;9762;52.490;13.410;2023-05-07T09:23:03;17.70;80.50
19256;DHT22;9762;52.490;13.410;2023-05-07T09:25:30;17.70;80.30
19256;DHT22;9762;52.490;13.410;2023-05-07T09:27:56;17.70;79.60
19256;DHT22;9762;52.490;13.410;2023-05-07T09:30:22;17.70;80.40
19256;DHT22;9762;52.490;13.410;2023-05-07T09:32:47;17.80;79.90
19256;DHT22;9762;52.490;13.410;2023-05-07T09:35:17;17.90;79.90
19256;DHT22;9762;52.490;13.410;2023-05-07T09:37:43;17.90;78.90
19256;DHT22;9762;52.490;13.410;2023-05-07T09:40:23;17.80;79.10
19256;DHT22;9762;52.490;13.410;2023-05-07T09:42:49;17.70;79.70
19256;DHT22;9762;52.490;13.410;2023-05-07T09:45:35;17.70;79.30
19256;DHT22;9762;52.490;13.410;2023-05-07T09:48:04;17.70;79.50
19256;DHT22;9762;52.490;13.410;2023-05-07T09:50:43;17.70;79.70
19256;DHT22;9762;52.490;13.410;2023-05-07T09:53:11;17.80;78.90
19256;DHT22;9762;52.490;13.410;2023-05-07T09:55:37;17.90;79.40
19256;DHT22;9762;52.490;13.410;2023-05-07T09:58:04;17.90;78.80
19256;DHT22;9762;52.490;13.410;2023-05-07T10:00:31;18.00;78.80
19256;DHT22;9762;52.490;13.410;2023-05-07T10:02:58;18.10;79.20
19256;DHT22;9762;52.490;13.410;2023-05-07T10:05:25;18.30;79.00
19256;DHT22;9762;52.490;13.410;2023-05-07T10:07:53;18.50;79.20
19256;DHT22;9762;52.490;13.410;2023-05-07T10:10:19;18.50;76.50
19256;DHT22;9762;52.490;13.410;2023-05-07T10:12:45;18.60;75.80
19256;DHT22;9762;52.490;13.410;2023-05-07T10:15:12;18.60;75.00
19256;DHT22;9762;52.490;13.410;2023-05-07T10:17:38;18.50;75.10
19256;DHT22;9762;52.490;13.410;2023-05-07T10:20:05;18.50;75.30
19256;DHT22;9762;52.490;13.410;2023-05-07T10:22:57;18.60;75.10
19256;DHT22;9762;52.490;13.410;2023-05-07T10:25:29;18.60;75.80
19256;DHT22;9762;52.490;13.410;2023-05-07T10:27:58;18.70;74.10
19256;DHT22;9762;52.490;13.410;2023-05-07T10:33:17;18.70;74.20
19256;DHT22;9762;52.490;13.410;2023-05-07T10:35:46;18.70;73.80
19256;DHT22;9762;52.490;13.410;2023-05-07T10:38:12;18.80;73.50
19256;DHT22;9762;52.490;13.410;2023-05-07T10:40:38;18.80;73.90
19256;DHT22;9762;52.490;13.410;2023-05-07T10:43:05;18.90;73.10
19256;DHT22;9762;52.490;13.410;2023-05-07T10:45:31;19.00;72.80
19256;DHT22;9762;52.490;13.410;2023-05-07T10:48:14;19.00;72.50
19256;DHT22;9762;52.490;13.410;2023-05-07T10:50:41;19.10;72.70
19256;DHT22;9762;52.490;13.410;2023-05-07T10:55:50;19.40;71.70
19256;DHT22;9762;52.490;13.410;2023-05-07T10:58:22;19.60;71.40
19256;DHT22;9762;52.490;13.410;2023-05-07T11:00:49;19.70;71.80
19256;DHT22;9762;52.490;13.410;2023-05-07T11:03:15;19.90;70.60
19256;DHT22;9762;52.490;13.410;2023-05-07T11:05:41;20.10;70.50
19256;DHT22;9762;52.490;13.410;2023-05-07T11:08:08;20.30;70.40
19256;DHT22;9762;52.490;13.410;2023-05-07T11:10:50;20.60;69.10
19256;DHT22;9762;52.490;13.410;2023-05-07T11:13:17;20.80;67.50
19256;DHT22;9762;52.490;13.410;2023-05-07T11:15:45;21.00;66.30
19256;DHT22;9762;52.490;13.410;2023-05-07T11:18:12;21.10;66.20
19256;DHT22;9762;52.490;13.410;2023-05-07T11:20:52;21.40;65.50
19256;DHT22;9762;52.490;13.410;2023-05-07T11:28:28;22.00;62.30
19256;DHT22;9762;52.490;13.410;2023-05-07T11:30:54;22.40;61.70
19256;DHT22;9762;52.490;13.410;2023-05-07T11:33:19;22.70;60.60
19256;DHT22;9762;52.490;13.410;2023-05-07T11:35:45;23.10;61.10
19256;DHT22;9762;52.490;13.410;2023-05-07T11:38:12;23.50;60.10
19256;DHT22;9762;52.490;13.410;2023-05-07T11:43:16;23.90;56.50
19256;DHT22;9762;52.490;13.410;2023-05-07T11:45:42;23.80;56.50
19256;DHT22;9762;52.490;13.410;2023-05-07T11:48:08;23.50;56.70
19256;DHT22;9762;52.490;13.410;2023-05-07T11:50:34;23.40;57.10
19256;DHT22;9762;52.490;13.410;2023-05-07T11:52:59;23.40;57.60
19256;DHT22;9762;52.490;13.410;2023-05-07T11:55:25;23.50;58.20
19256;DHT22;9762;52.490;13.410;2023-05-07T11:57:51;23.60;57.50
19256;DHT22;9762;52.490;13.410;2023-05-07T12:00:17;23.70;57.20
19256;DHT22;9762;52.490;13.410;2023-05-07T12:02:45;24.10;57.10
19256;DHT22;9762;52.490;13.410;2023-05-07T12:05:11;24.50;56.70
19256;DHT22;9762;52.490;13.410;2023-05-07T12:07:36;25.10;55.60
19256;DHT22;9762;52.490;13.410;2023-05-07T12:10:06;25.60;54.80
19256;DHT22;9762;52.490;13.410;2023-05-07T12:12:41;26.20;54.30
19256;DHT22;9762;52.490;13.410;2023-05-07T12:15:09;26.70;52.90
19256;DHT22;9762;52.490;13.410;2023-05-07T12:17:35;26.90;50.00
19256;DHT22;9762;52.490;13.410;2023-05-07T12:20:01;26.70;51.00
19256;DHT22;9762;52.490;13.410;2023-05-07T12:22:27;27.00;51.70
19256;DHT22;9762;52.490;13.410;2023-05-07T12:24:59;27.60;51.40
19256;DHT22;9762;52.490;13.410;2023-05-07T12:27:26;28.20;49.30
19256;DHT22;9762;52.490;13.410;2023-05-07T12:29:51;28.70;48.60
19256;DHT22;9762;52.490;13.410;2023-05-07T12:32:18;29.20;47.60
19256;DHT22;9762;52.490;13.410;2023-05-07T12:34:45;29.60;46.20
19256;DHT22;9762;52.490;13.410;2023-05-07T12:37:10;29.90;46.10
19256;DHT22;9762;52.490;13.410;2023-05-07T12:39:38;30.20;45.40
19256;DHT22;9762;52.490;13.410;2023-05-07T12:44:32;30.80;43.80
19256;DHT22;9762;52.490;13.410;2023-05-07T12:46:58;31.10;43.70
19256;DHT22;9762;52.490;13.410;2023-05-07T12:49:26;31.20;42.80
19256;DHT22;9762;52.490;13.410;2023-05-07T12:51:53;31.30;42.30
19256;DHT22;9762;52.490;13.410;2023-05-07T12:54:29;31.30;41.80
19256;DHT22;9762;52.490;13.410;2023-05-07T12:57:06;31.40;42.10
19256;DHT22;9762;52.490;13.410;2023-05-07T12:59:41;31.60;41.50
19256;DHT22;9762;52.490;13.410;2023-05-07T13:02:08;31.80;41.40
19256;DHT22;9762;52.490;13.410;2023-05-07T13:04:35;31.90;40.70
19256;DHT22;9762;52.490;13.410;2023-05-07T13:07:01;32.00;40.40
19256;DHT22;9762;52.490;13.410;2023-05-07T13:09:27;32.10;41.00
19256;DHT22;9762;52.490;13.410;2023-05-07T13:11:54;32.20;39.80
19256;DHT22;9762;52.490;13.410;2023-05-07T13:14:20;32.20;39.20
19256;DHT22;9762;52.490;13.410;2023-05-07T13:16:46;32.20;39.00
19256;DHT22;9762;52.490;13.410;2023-05-07T13:19:12;32.20;38.90
19256;DHT22;9762;52.490;13.410;2023-05-07T13:24:04;31.90;38.30
19256;DHT22;9762;52.490;13.410;2023-05-07T13:26:31;31.60;39.60
19256;DHT22;9762;52.490;13.410;2023-05-07T13:28:57;31.40;38.80
19256;DHT22;9762;52.490;13.410;2023-05-07T13:31:23;31.00;39.40
19256;DHT22;9762;52.490;13.410;2023-05-07T13:33:48;30.90;40.20
19256;DHT22;9762;52.490;13.410;2023-05-07T13:36:14;30.80;40.20
19256;DHT22;9762;52.490;13.410;2023-05-07T13:38:40;30.60;40.80
19256;DHT22;9762;52.490;13.410;2023-05-07T13:41:06;30.50;40.30
19256;DHT22;9762;52.490;13.410;2023-05-07T13:43:31;30.50;40.10
19256;DHT22;9762;52.490;13.410;2023-05-07T13:46:00;30.40;40.60
19256;DHT22;9762;52.490;13.410;2023-05-07T13:48:26;30.30;40.60
19256;DHT22;9762;52.490;13.410;2023-05-07T13:50:52;30.20;40.40
19256;DHT22;9762;52.490;13.410;2023-05-07T13:53:18;30.00;40.40
19256;DHT22;9762;52.490;13.410;2023-05-07T13:55:44;30.00;40.50
19256;DHT22;9762;52.490;13.410;2023-05-07T13:58:10;29.90;40.20
19256;DHT22;9762;52.490;13.410;2023-05-07T14:00:36;29.90;40.60
19256;DHT22;9762;52.490;13.410;2023-05-07T14:03:02;29.90;40.50
19256;DHT22;9762;52.490;13.410;2023-05-07T14:05:28;29.90;40.20
19256;DHT22;9762;52.490;13.410;2023-05-07T14:07:55;29.70;40.50
19256;DHT22;9762;52.490;13.410;2023-05-07T14:10:21;29.60;41.00
19256;DHT22;9762;52.490;13.410;2023-05-07T14:12:47;29.70;40.30
19256;DHT22;9762;52.490;13.410;2023-05-07T14:15:13;29.70;40.70
19256;DHT22;9762;52.490;13.410;2023-05-07T14:17:39;29.90;40.80
19256;DHT22;9762;52.490;13.410;2023-05-07T14:20:05;30.00;40.50
19256;DHT22;9762;52.490;13.410;2023-05-07T14:22:32;30.00;40.30
19256;DHT22;9762;52.490;13.410;2023-05-07T14:24:57;30.00;40.40
19256;DHT22;9762;52.490;13.410;2023-05-07T14:27:23;30.10;41.80
19256;DHT22;9762;52.490;13.410;2023-05-07T14:29:49;30.30;40.80
19256;DHT22;9762;52.490;13.410;2023-05-07T14:32:17;30.30;40.20
19256;DHT22;9762;52.490;13.410;2023-05-07T14:34:43;30.20;40.40
19256;DHT22;9762;52.490;13.410;2023-05-07T14:37:09;30.00;40.70
19256;DHT22;9762;52.490;13.410;2023-05-07T14:39:35;29.80;41.00
19256;DHT22;9762;52.490;13.410;2023-05-07T14:42:01;29.70;41.00
19256;DHT22;9762;52.490;13.410;2023-05-07T14:44:26;29.60;41.30
19256;DHT22;9762;52.490;13.410;2023-05-07T14:46:52;29.50;41.00
19256;DHT22;9762;52.490;13.410;2023-05-07T14:49:18;29.30;40.90
19256;DHT22;9762;52.490;13.410;2023-05-07T14:51:44;29.10;41.20
19256;DHT22;9762;52.490;13.410;2023-05-07T14:54:11;28.90;41.40
19256;DHT22;9762;52.490;13.410;2023-05-07T14:56:36;28.50;41.80
19256;DHT22;9762;52.490;13.410;2023-05-07T14:59:02;28.00;42.30
19256;DHT22;9762;52.490;13.410;2023-05-07T15:01:28;27.60;42.90
19256;DHT22;9762;52.490;13.410;2023-05-07T15:03:54;27.30;43.20
19256;DHT22;9762;52.490;13.410;2023-05-07T15:06:21;27.00;43.90
19256;DHT22;9762;52.490;13.410;2023-05-07T15:08:47;26.70;44.20
19256;DHT22;9762;52.490;13.410;2023-05-07T15:11:14;26.30;44.60
19256;DHT22;9762;52.490;13.410;2023-05-07T15:13:39;26.20;45.20
19256;DHT22;9762;52.490;13.410;2023-05-07T15:16:05;26.00;45.60
19256;DHT22;9762;52.490;13.410;2023-05-07T15:18:30;25.70;46.30
19256;DHT22;9762;52.490;13.410;2023-05-07T15:20:56;25.30;46.90
19256;DHT22;9762;52.490;13.410;2023-05-07T15:23:23;24.90;47.20
19256;DHT22;9762;52.490;13.410;2023-05-07T15:25:48;24.70;47.90
19256;DHT22;9762;52.490;13.410;2023-05-07T15:28:14;24.30;48.50
19256;DHT22;9762;52.490;13.410;2023-05-07T15:30:39;24.00;49.80
19256;DHT22;9762;52.490;13.410;2023-05-07T15:33:05;23.70;50.00
19256;DHT22;9762;52.490;13.410;2023-05-07T15:35:31;23.40;50.50
19256;DHT22;9762;52.490;13.410;2023-05-07T15:37:56;23.10;50.80
19256;DHT22;9762;52.490;13.410;2023-05-07T15:40:22;22.80;51.50
19256;DHT22;9762;52.490;13.410;2023-05-07T15:42:48;22.50;51.90
19256;DHT22;9762;52.490;13.410;2023-05-07T15:45:14;22.40;52.30